| time (UTC) | temp C | wind direction | speed KPH | gust KPH | rain 1hr cm | rain 24hr cm | rain mn cm | humidity % | barometer mb |
| 20260504012729 | 16 | 202 | 4.8 | 11.3 | 0.00 | 0.00 | 0.00 | 56 | 1011.3 |
| 20260504012214 | 16 | 277 | 3.2 | 14.5 | 0.00 | 0.00 | 0.00 | 56 | 1011.3 |
| 20260504011741 | 16 | 271 | 6.4 | 16.1 | 0.00 | 0.00 | 0.00 | 56 | 1011.3 |
| 20260504011227 | 16 | 275 | 6.4 | 16.1 | 0.00 | 0.00 | 0.00 | 55 | 1011.2 |
| 20260504010713 | 16 | 261 | 4.8 | 12.9 | 0.00 | 0.00 | 0.00 | 55 | 1011.4 |
| 20260504010238 | 16 | 256 | 4.8 | 12.9 | 0.00 | 0.00 | 0.00 | 55 | 1011.3 |
| 20260504005722 | 16 | 223 | 3.2 | 12.9 | 0.00 | 0.00 | 0.00 | 55 | 1011.4 |
| 20260504005227 | 16 | 207 | 6.4 | 12.9 | 0.00 | 0.00 | 0.00 | 55 | 1011.6 |
| 20260504004714 | 16 | 189 | 3.2 | 11.3 | 0.00 | 0.00 | 0.00 | 54 | 1011.7 |
| 20260504004220 | 16 | 232 | 6.4 | 11.3 | 0.00 | 0.00 | 0.00 | 54 | 1011.7 |
| 20260504003746 | 16 | 220 | 4.8 | 9.7 | 0.00 | 0.00 | 0.00 | 54 | 1011.8 |
| 20260504003229 | 16 | 237 | 4.8 | 17.7 | 0.00 | 0.00 | 0.00 | 53 | 1011.9 |
| 20260504002752 | 16 | 213 | 6.4 | 17.7 | 0.00 | 0.00 | 0.00 | 53 | 1011.8 |
| 20260504002235 | 17 | 215 | 3.2 | 14.5 | 0.00 | 0.00 | 0.00 | 53 | 1012.0 |
| 20260504001719 | 17 | 257 | 6.4 | 16.1 | 0.00 | 0.00 | 0.00 | 53 | 1012.1 |
| 20260504001245 | 17 | 297 | 8.0 | 16.1 | 0.00 | 0.00 | 0.00 | 52 | 1012.1 |
| 20260504000751 | 17 | 224 | 3.2 | 16.1 | 0.00 | 0.00 | 0.00 | 53 | 1011.9 |
| 20260504000219 | 17 | 275 | 9.7 | 16.1 | 0.00 | 0.00 | 0.00 | 52 | 1012.1 |
| 20260503235743 | 17 | 279 | 6.4 | 14.5 | 0.00 | 0.00 | 0.00 | 52 | 1012.2 |
| 20260503235228 | 17 | 286 | 3.2 | 12.9 | 0.00 | 0.00 | 0.00 | 52 | 1012.3 |
| 20260503234715 | 17 | 257 | 8.0 | 14.5 | 0.00 | 0.00 | 0.00 | 51 | 1012.2 |
| 20260503234221 | 17 | 263 | 6.4 | 14.5 | 0.00 | 0.00 | 0.00 | 52 | 1012.2 |
| 20260503233725 | 17 | 263 | 8.0 | 22.5 | 0.00 | 0.00 | 0.00 | 51 | 1012.1 |
| 20260503233229 | 17 | 269 | 9.7 | 22.5 | 0.00 | 0.00 | 0.00 | 51 | 1012.1 |
| 20260503232753 | 17 | 296 | 8.0 | 19.3 | 0.00 | 0.00 | 0.00 | 51 | 1012.0 |
| 20260503232236 | 17 | 225 | 9.7 | 19.3 | 0.00 | 0.00 | 0.00 | 51 | 1011.9 |
| 20260503231719 | 17 | 276 | 12.9 | 25.7 | 0.00 | 0.00 | 0.00 | 50 | 1012.0 |
| 20260503231242 | 17 | 211 | 17.7 | 27.4 | 0.00 | 0.00 | 0.00 | 50 | 1012.1 |
| 20260503230725 | 17 | 259 | 9.7 | 27.4 | 0.00 | 0.00 | 0.00 | 50 | 1012.0 |
| 20260503230231 | 17 | 297 | 14.5 | 25.7 | 0.00 | 0.00 | 0.00 | 49 | 1011.8 |
| 20260503225718 | 17 | 242 | 6.4 | 16.1 | 0.00 | 0.00 | 0.00 | 51 | 1011.8 |
| 20260503225223 | 17 | 243 | 8.0 | 16.1 | 0.00 | 0.00 | 0.00 | 50 | 1011.9 |
| 20260503224729 | 18 | 264 | 9.7 | 24.1 | 0.00 | 0.00 | 0.00 | 50 | 1012.0 |
| 20260503224234 | 18 | 252 | 12.9 | 30.6 | 0.00 | 0.00 | 0.00 | 49 | 1012.0 |
| 20260503223716 | 18 | 270 | 11.3 | 30.6 | 0.00 | 0.00 | 0.00 | 50 | 1012.0 |
| 20260503223240 | 18 | 276 | 12.9 | 27.4 | 0.00 | 0.00 | 0.00 | 49 | 1011.8 |
| 20260503222724 | 18 | 192 | 14.5 | 27.4 | 0.00 | 0.00 | 0.00 | 49 | 1012.0 |
| 20260503222228 | 18 | 227 | 12.9 | 32.2 | 0.00 | 0.00 | 0.00 | 49 | 1011.9 |
| 20260503221732 | 18 | 287 | 12.9 | 40.2 | 0.00 | 0.00 | 0.00 | 48 | 1012.0 |
| 20260503221216 | 18 | 255 | 17.7 | 40.2 | 0.00 | 0.00 | 0.00 | 48 | 1012.1 |
| 20260503220740 | 18 | 247 | 11.3 | 32.2 | 0.00 | 0.00 | 0.00 | 49 | 1012.2 |
| 20260503220243 | 17 | 260 | 17.7 | 32.2 | 0.00 | 0.00 | 0.00 | 49 | 1012.2 |
| 20260503215745 | 17 | 223 | 14.5 | 27.4 | 0.00 | 0.00 | 0.00 | 49 | 1012.2 |
| 20260503215248 | 17 | 283 | 17.7 | 30.6 | 0.00 | 0.00 | 0.00 | 49 | 1012.2 |
| 20260503214749 | 17 | 228 | 11.3 | 30.6 | 0.00 | 0.00 | 0.00 | 51 | 1012.4 |
| 20260503214218 | 17 | 239 | 14.5 | 32.2 | 0.00 | 0.00 | 0.00 | 49 | 1012.5 |
| 20260503213724 | 17 | 265 | 14.5 | 30.6 | 0.00 | 0.00 | 0.00 | 50 | 1012.7 |
| 20260503213246 | 18 | 257 | 9.7 | 30.6 | 0.00 | 0.00 | 0.00 | 50 | 1012.7 |
| 20260503212715 | 17 | 252 | 11.3 | 33.8 | 0.00 | 0.00 | 0.00 | 50 | 1012.8 |
| 20260503212220 | 17 | 288 | 14.5 | 33.8 | 0.00 | 0.00 | 0.00 | 49 | 1013.0 |
| 20260503211726 | 17 | 290 | 14.5 | 32.2 | 0.00 | 0.00 | 0.00 | 50 | 1013.1 |
| 20260503211232 | 17 | 184 | 12.9 | 32.2 | 0.00 | 0.00 | 0.00 | 50 | 1013.0 |
| 20260503210715 | 17 | 229 | 12.9 | 30.6 | 0.00 | 0.00 | 0.00 | 49 | 1013.1 |
| 20260503210239 | 18 | 221 | 19.3 | 30.6 | 0.00 | 0.00 | 0.00 | 48 | 1013.4 |
| 20260503205722 | 17 | 259 | 12.9 | 35.4 | 0.00 | 0.00 | 0.00 | 49 | 1013.4 |
| 20260503205226 | 17 | 269 | 14.5 | 35.4 | 0.00 | 0.00 | 0.00 | 49 | 1013.2 |
| 20260503204730 | 17 | 258 | 12.9 | 25.7 | 0.00 | 0.00 | 0.00 | 49 | 1013.9 |
| 20260503204214 | 17 | 281 | 12.9 | 30.6 | 0.00 | 0.00 | 0.00 | 48 | 1014.2 |
| 20260503203719 | 17 | 186 | 9.7 | 30.6 | 0.00 | 0.00 | 0.00 | 48 | 1014.3 |
| 20260503203222 | 17 | 290 | 19.3 | 30.6 | 0.00 | 0.00 | 0.00 | 47 | 1014.6 |
| 20260503202747 | 17 | 301 | 11.3 | 27.4 | 0.00 | 0.00 | 0.00 | 48 | 1014.6 |
| 20260503202246 | 17 | 252 | 12.9 | 30.6 | 0.00 | 0.00 | 0.00 | 48 | 1014.8 |
| 20260503201749 | 17 | 280 | 16.1 | 30.6 | 0.00 | 0.00 | 0.00 | 48 | 1014.9 |
| 20260503201252 | 18 | 277 | 16.1 | 30.6 | 0.00 | 0.00 | 0.00 | 46 | 1015.0 |
| 20260503200716 | 18 | 317 | 16.1 | 32.2 | 0.00 | 0.00 | 0.00 | 48 | 1014.9 |
| 20260503200220 | 18 | 223 | 19.3 | 40.2 | 0.00 | 0.00 | 0.00 | 48 | 1014.8 |
| 20260503195725 | 18 | 269 | 12.9 | 40.2 | 0.00 | 0.00 | 0.00 | 48 | 1014.7 |
| 20260503195229 | 18 | 267 | 12.9 | 30.6 | 0.00 | 0.00 | 0.00 | 51 | 1014.8 |
| 20260503194713 | 18 | 211 | 14.5 | 30.6 | 0.00 | 0.00 | 0.00 | 49 | 1014.7 |
| 20260503194217 | 18 | 264 | 16.1 | 29.0 | 0.00 | 0.00 | 0.00 | 49 | 1015.1 |
| 20260503193741 | 18 | 284 | 17.7 | 29.0 | 0.00 | 0.00 | 0.00 | 50 | 1015.0 |
| 20260503193224 | 17 | 266 | 12.9 | 30.6 | 0.00 | 0.00 | 0.00 | 50 | 1015.1 |
| 20260503192748 | 17 | 261 | 19.3 | 29.0 | 0.00 | 0.00 | 0.00 | 49 | 1015.4 |
| 20260503192232 | 17 | 244 | 8.0 | 29.0 | 0.00 | 0.00 | 0.00 | 52 | 1015.3 |
| 20260503191716 | 17 | 162 | 14.5 | 29.0 | 0.00 | 0.00 | 0.00 | 51 | 1015.6 |
| 20260503191240 | 17 | 264 | 11.3 | 33.8 | 0.00 | 0.00 | 0.00 | 51 | 1015.6 |
| 20260503190742 | 17 | 290 | 14.5 | 38.6 | 0.00 | 0.00 | 0.00 | 50 | 1015.4 |
| 20260503190225 | 17 | 300 | 19.3 | 38.6 | 0.00 | 0.00 | 0.00 | 49 | 1015.7 |
| 20260503185729 | 17 | 265 | 17.7 | 35.4 | 0.00 | 0.00 | 0.00 | 49 | 1015.8 |
| 20260503185213 | 17 | 297 | 12.9 | 29.0 | 0.00 | 0.00 | 0.00 | 51 | 1015.8 |
| 20260503184717 | 17 | 333 | 16.1 | 29.0 | 0.00 | 0.00 | 0.00 | 51 | 1015.9 |
| 20260503184221 | 17 | 264 | 11.3 | 29.0 | 0.00 | 0.00 | 0.00 | 47 | 1015.9 |
| 20260503183747 | 17 | 234 | 12.9 | 27.4 | 0.00 | 0.00 | 0.00 | 50 | 1016.3 |
| 20260503183230 | 17 | 267 | 16.1 | 30.6 | 0.00 | 0.00 | 0.00 | 49 | 1016.3 |
| 20260503182734 | 17 | 254 | 19.3 | 30.6 | 0.00 | 0.00 | 0.00 | 49 | 1016.3 |
| 20260503182240 | 17 | 253 | 12.9 | 43.5 | 0.00 | 0.00 | 0.00 | 50 | 1016.6 |
| 20260503181725 | 17 | 271 | 19.3 | 43.5 | 0.00 | 0.00 | 0.00 | 49 | 1016.7 |
| 20260503181231 | 17 | 260 | 17.7 | 32.2 | 0.00 | 0.00 | 0.00 | 49 | 1016.8 |
| 20260503180717 | 17 | 344 | 14.5 | 32.2 | 0.00 | 0.00 | 0.00 | 51 | 1016.8 |
| 20260503180244 | 17 | 263 | 9.7 | 19.3 | 0.00 | 0.00 | 0.00 | 50 | 1017.0 |
| 20260503175729 | 17 | 222 | 11.3 | 25.7 | 0.00 | 0.00 | 0.00 | 51 | 1017.2 |
| 20260503175231 | 17 | 309 | 17.7 | 38.6 | 0.00 | 0.00 | 0.00 | 50 | 1017.4 |
| 20260503174735 | 17 | 268 | 19.3 | 38.6 | 0.00 | 0.00 | 0.00 | 52 | 1017.6 |
| 20260503174239 | 17 | 259 | 14.5 | 33.8 | 0.00 | 0.00 | 0.00 | 50 | 1017.6 |
| 20260503173741 | 17 | 208 | 17.7 | 33.8 | 0.00 | 0.00 | 0.00 | 51 | 1017.7 |
| 20260503173224 | 17 | 266 | 14.5 | 27.4 | 0.00 | 0.00 | 0.00 | 51 | 1017.8 |
| 20260503172729 | 17 | 258 | 12.9 | 35.4 | 0.00 | 0.00 | 0.00 | 50 | 1017.8 |
| 20260503172252 | 17 | 263 | 17.7 | 35.4 | 0.00 | 0.00 | 0.00 | 49 | 1017.9 |
| 20260503171715 | 16 | 252 | 12.9 | 37.0 | 0.00 | 0.00 | 0.00 | 50 | 1017.9 |
| 20260503171239 | 16 | 246 | 14.5 | 37.0 | 0.00 | 0.00 | 0.00 | 50 | 1017.9 |
| 20260503170722 | 16 | 280 | 12.9 | 27.4 | 0.00 | 0.00 | 0.00 | 52 | 1018.0 |
| 20260503170246 | 16 | 238 | 11.3 | 33.8 | 0.00 | 0.00 | 0.00 | 51 | 1018.0 |
| 20260503150723 | 14 | 276 | 9.7 | 27.4 | 0.00 | 0.00 | 0.00 | 53 | 1019.2 |
| 20260503150249 | 14 | 281 | 12.9 | 24.1 | 0.00 | 0.00 | 0.00 | 53 | 1019.2 |
| 20260503140216 | 12 | 309 | 14.5 | 22.5 | 0.00 | 0.00 | 0.00 | 57 | 1019.4 |
| 20260503131231 | 8 | 310 | 4.8 | 14.5 | 0.00 | 0.00 | 0.00 | 68 | 1019.4 |
| 20260503130735 | 8 | 287 | 6.4 | 12.9 | 0.00 | 0.00 | 0.00 | 70 | 1019.4 |
| 20260503130218 | 8 | 270 | 4.8 | 12.9 | 0.00 | 0.00 | 0.00 | 70 | 1019.4 |
| 20260503110716 | 2 | 223 | 3.2 | 6.4 | 0.00 | 0.00 | 0.00 | 90 | 1019.0 |
| 20260503110217 | 2 | 229 | 1.6 | 4.8 | 0.00 | 0.00 | 0.00 | 90 | 1019.0 |
| 20260503100236 | 1 | 210 | 1.6 | 4.8 | 0.00 | 0.00 | 0.00 | 90 | 1018.7 |
| 20260503090216 | 1 | 142 | 1.6 | 3.2 | 0.00 | 0.00 | 0.00 | 90 | 1018.6 |
| 20260503081252 | 1 | 70 | 0.0 | 0.0 | 0.00 | 0.00 | 0.00 | 89 | 1018.6 |
| 20260503080716 | 1 | 70 | 0.0 | 1.6 | 0.00 | 0.00 | 0.00 | 89 | 1018.6 |
| 20260503080219 | 1 | 70 | 0.0 | 1.6 | 0.00 | 0.00 | 0.00 | 89 | 1018.6 |
| 20260503072719 | 1 | 70 | 0.0 | 0.0 | 0.00 | 0.00 | 0.00 | 88 | 1018.7 |
| 20260503072246 | 1 | 70 | 0.0 | 0.0 | 0.00 | 0.00 | 0.00 | 88 | 1018.6 |
| 20260503071752 | 1 | 70 | 0.0 | 0.0 | 0.00 | 0.00 | 0.00 | 88 | 1018.7 |
| 20260503071217 | 1 | 70 | 0.0 | 0.0 | 0.00 | 0.00 | 0.00 | 88 | 1018.7 |
| 20260503070723 | 1 | 70 | 0.0 | 0.0 | 0.00 | 0.00 | 0.00 | 88 | 1018.7 |
| 20260503070251 | 1 | 70 | 0.0 | 0.0 | 0.00 | 0.00 | 0.00 | 87 | 1018.7 |
| 20260503060247 | 2 | 70 | 0.0 | 1.6 | 0.00 | 0.00 | 0.00 | 86 | 1019.0 |
| 20260503054719 | 2 | 70 | 0.0 | 3.2 | 0.00 | 0.00 | 0.00 | 86 | 1019.1 |
| 20260503054224 | 2 | 70 | 1.6 | 3.2 | 0.00 | 0.00 | 0.00 | 86 | 1019.0 |
| 20260503053749 | 2 | 70 | 0.0 | 0.0 | 0.00 | 0.00 | 0.00 | 85 | 1019.2 |
| 20260503053232 | 2 | 70 | 0.0 | 0.0 | 0.00 | 0.00 | 0.00 | 85 | 1019.2 |
| 20260503052717 | 2 | 70 | 0.0 | 0.0 | 0.00 | 0.00 | 0.00 | 85 | 1019.2 |
| 20260503052242 | 2 | 70 | 0.0 | 0.0 | 0.00 | 0.00 | 0.00 | 85 | 1019.2 |
| 20260503051725 | 2 | 70 | 0.0 | 0.0 | 0.00 | 0.00 | 0.00 | 85 | 1019.2 |
| 20260503051249 | 2 | 70 | 0.0 | 3.2 | 0.00 | 0.00 | 0.00 | 85 | 1019.2 |
| 20260503050732 | 2 | 70 | 0.0 | 3.2 | 0.00 | 0.00 | 0.00 | 85 | 1019.1 |
| 20260503050218 | 2 | 70 | 1.6 | 3.2 | 0.00 | 0.00 | 0.00 | 84 | 1019.2 |
| 20260503045724 | 2 | 69 | 0.0 | 0.0 | 0.00 | 0.00 | 0.00 | 84 | 1019.1 |
| 20260503045229 | 2 | 69 | 0.0 | 0.0 | 0.00 | 0.00 | 0.00 | 83 | 1019.3 |
| 20260503044736 | 3 | 69 | 0.0 | 0.0 | 0.00 | 0.00 | 0.00 | 83 | 1019.3 |
| 20260503044241 | 3 | 69 | 0.0 | 0.0 | 0.00 | 0.00 | 0.00 | 83 | 1019.3 |
| 20260503043746 | 3 | 69 | 0.0 | 0.0 | 0.00 | 0.00 | 0.00 | 82 | 1019.2 |
| 20260503043230 | 3 | 69 | 0.0 | 0.0 | 0.00 | 0.00 | 0.00 | 82 | 1019.3 |
| 20260503042734 | 3 | 69 | 0.0 | 0.0 | 0.00 | 0.00 | 0.00 | 82 | 1019.3 |
| 20260503042217 | 3 | 69 | 0.0 | 0.0 | 0.00 | 0.00 | 0.00 | 82 | 1019.2 |
| 20260503041721 | 3 | 69 | 0.0 | 0.0 | 0.00 | 0.00 | 0.00 | 81 | 1019.2 |
| 20260503041226 | 3 | 69 | 0.0 | 0.0 | 0.00 | 0.00 | 0.00 | 81 | 1019.1 |
| 20260503040731 | 3 | 68 | 0.0 | 0.0 | 0.00 | 0.00 | 0.00 | 80 | 1019.2 |
| 20260503040217 | 3 | 69 | 0.0 | 0.0 | 0.00 | 0.00 | 0.00 | 80 | 1019.2 |
| 20260503035744 | 3 | 69 | 0.0 | 0.0 | 0.00 | 0.00 | 0.00 | 80 | 1019.1 |
| 20260503035229 | 3 | 69 | 0.0 | 0.0 | 0.00 | 0.00 | 0.00 | 80 | 1019.1 |
| 20260503034716 | 3 | 69 | 0.0 | 0.0 | 0.00 | 0.00 | 0.00 | 80 | 1019.1 |
| 20260503034242 | 4 | 69 | 0.0 | 0.0 | 0.00 | 0.00 | 0.00 | 80 | 1019.0 |
| 20260503033727 | 4 | 69 | 0.0 | 0.0 | 0.00 | 0.00 | 0.00 | 79 | 1019.1 |
| 20260503033213 | 4 | 69 | 0.0 | 0.0 | 0.00 | 0.00 | 0.00 | 79 | 1019.0 |
| 20260503032739 | 5 | 69 | 0.0 | 0.0 | 0.00 | 0.00 | 0.00 | 77 | 1019.0 |
| 20260503032225 | 5 | 69 | 0.0 | 0.0 | 0.00 | 0.00 | 0.00 | 77 | 1019.0 |
| 20260503031731 | 5 | 68 | 0.0 | 0.0 | 0.00 | 0.00 | 0.00 | 76 | 1019.1 |
| 20260503031236 | 5 | 69 | 0.0 | 0.0 | 0.00 | 0.00 | 0.00 | 75 | 1019.0 |
| 20260503030721 | 5 | 69 | 0.0 | 0.0 | 0.00 | 0.00 | 0.00 | 74 | 1019.1 |
| 20260503030227 | 5 | 69 | 0.0 | 0.0 | 0.00 | 0.00 | 0.00 | 74 | 1019.2 |
| 20260503025753 | 5 | 69 | 0.0 | 0.0 | 0.00 | 0.00 | 0.00 | 74 | 1019.2 |
| 20260503025218 | 5 | 69 | 0.0 | 0.0 | 0.00 | 0.00 | 0.00 | 74 | 1019.2 |
| 20260503024744 | 5 | 69 | 0.0 | 0.0 | 0.00 | 0.00 | 0.00 | 74 | 1019.1 |
| 20260503024249 | 6 | 69 | 0.0 | 0.0 | 0.00 | 0.00 | 0.00 | 74 | 1019.1 |
| 20260503023714 | 6 | 69 | 0.0 | 0.0 | 0.00 | 0.00 | 0.00 | 72 | 1019.1 |
| 20260503023219 | 6 | 68 | 0.0 | 0.0 | 0.00 | 0.00 | 0.00 | 71 | 1019.0 |
| 20260503022723 | 6 | 68 | 0.0 | 0.0 | 0.00 | 0.00 | 0.00 | 71 | 1019.0 |
| 20260503022226 | 6 | 68 | 0.0 | 0.0 | 0.00 | 0.00 | 0.00 | 70 | 1019.0 |
| 20260503021731 | 6 | 69 | 0.0 | 0.0 | 0.00 | 0.00 | 0.00 | 70 | 1018.9 |
| 20260503021217 | 7 | 69 | 0.0 | 0.0 | 0.00 | 0.00 | 0.00 | 68 | 1018.9 |
| 20260503020723 | 7 | 68 | 0.0 | 0.0 | 0.00 | 0.00 | 0.00 | 67 | 1018.8 |
| 20260503020230 | 7 | 68 | 0.0 | 0.0 | 0.00 | 0.00 | 0.00 | 66 | 1018.8 |
| 20260503015736 | 7 | 68 | 0.0 | 0.0 | 0.00 | 0.00 | 0.00 | 65 | 1018.7 |
| 20260503015220 | 8 | 68 | 0.0 | 0.0 | 0.00 | 0.00 | 0.00 | 65 | 1018.7 |
| 20260503014727 | 8 | 68 | 0.0 | 0.0 | 0.00 | 0.00 | 0.00 | 64 | 1018.6 |
| 20260503014234 | 8 | 68 | 0.0 | 0.0 | 0.00 | 0.00 | 0.00 | 64 | 1018.5 |
| 20260503013720 | 8 | 68 | 0.0 | 0.0 | 0.00 | 0.00 | 0.00 | 62 | 1018.5 |
| 20260503013247 | 8 | 68 | 0.0 | 0.0 | 0.00 | 0.00 | 0.00 | 61 | 1018.4 |